Time;durP1;ratioP1;P1;durP2;ratioP2;P2;SDS_P1;SDS_P2;PMS_P1;PMS_P2;Temp;Humidity;BMP_temperature;BMP_pressure;BME280_temperature;BME280_humidity;BME280_pressure;Samples;Min_cycle;Max_cycle;Signal;HPM_P1;HPM_P2
2021/12/19 00:01:51;;;;;;;8.80;3.60;;;7.30;99.90;;;;;;5076010;28;20434;-40
2021/12/19 00:04:26;;;;;;;8.67;4.37;;;7.30;99.90;;;;;;5081715;28;20197;-44
2021/12/19 00:09:38;;;;;;;13.87;4.70;;;7.30;99.90;;;;;;5074763;28;20197;-42
2021/12/19 00:12:05;;;;;;;13.30;4.70;;;7.30;99.90;;;;;;5078154;28;20701;-43
2021/12/19 00:14:32;;;;;;;9.87;5.10;;;7.30;99.90;;;;;;5080058;28;20209;-42
2021/12/19 00:17:00;;;;;;;7.83;5.00;;;7.30;99.90;;;;;;5084220;28;20224;-42
2021/12/19 00:19:26;;;;;;;12.80;5.30;;;7.30;99.90;;;;;;5077910;28;20221;-41
2021/12/19 00:21:54;;;;;;;9.57;4.50;;;7.30;99.90;;;;;;5068301;28;20228;-42
2021/12/19 00:24:21;;;;;;;7.83;4.10;;;7.30;99.90;;;;;;5079583;28;20198;-43
2021/12/19 00:26:48;;;;;;;13.67;4.60;;;7.30;99.90;;;;;;5078572;28;20375;-40
2021/12/19 00:29:15;;;;;;;9.50;5.00;;;7.30;99.90;;;;;;5067109;28;20301;-43
2021/12/19 00:31:43;;;;;;;11.40;4.33;;;7.30;99.90;;;;;;5078355;28;20202;-41
2021/12/19 00:34:10;;;;;;;7.33;3.83;;;7.20;99.90;;;;;;5081641;28;20229;-43
2021/12/19 00:36:36;;;;;;;12.10;5.17;;;7.20;99.90;;;;;;5064970;28;20206;-44
2021/12/19 00:39:05;;;;;;;14.73;5.23;;;7.30;99.90;;;;;;5081852;28;20209;-41
2021/12/19 00:41:31;;;;;;;14.50;4.57;;;7.30;99.90;;;;;;5079625;28;20229;-45
2021/12/19 00:44:07;;;;;;;14.77;5.10;;;7.30;99.90;;;;;;5075216;28;20210;-42
2021/12/19 00:46:42;;;;;;;12.40;5.03;;;7.30;99.90;;;;;;5078757;28;20216;-48
2021/12/19 00:49:09;;;;;;;11.17;5.00;;;7.30;99.90;;;;;;5080540;28;20202;-44
2021/12/19 00:51:36;;;;;;;16.67;6.00;;;7.30;99.90;;;;;;5078307;28;20808;-42
2021/12/19 00:54:09;;;;;;;18.13;5.67;;;7.30;99.90;;;;;;5066806;28;20197;-41
2021/12/19 00:56:36;;;;;;;15.37;5.70;;;7.30;99.90;;;;;;5078605;28;20930;-41
2021/12/19 00:59:03;;;;;;;16.50;5.70;;;7.40;99.90;;;;;;5075020;28;20199;-41
2021/12/19 01:01:30;;;;;;;14.50;6.33;;;7.30;99.90;;;;;;5074304;28;20214;-40
2021/12/19 01:03:57;;;;;;;12.40;5.87;;;7.40;99.90;;;;;;5081103;28;20205;-43
2021/12/19 01:06:23;;;;;;;10.93;5.33;;;7.40;99.90;;;;;;5072898;28;20565;-41
2021/12/19 01:08:50;;;;;;;13.77;6.17;;;7.40;99.90;;;;;;5067015;28;20205;-41
2021/12/19 01:11:18;;;;;;;12.37;4.07;;;7.40;99.90;;;;;;5081753;28;20217;-41
2021/12/19 01:13:45;;;;;;;13.10;6.20;;;7.40;99.90;;;;;;5079586;28;20208;-41
2021/12/19 01:16:12;;;;;;;13.07;5.33;;;7.40;99.90;;;;;;5072525;28;20213;-41
2021/12/19 01:18:38;;;;;;;13.00;6.07;;;7.50;99.90;;;;;;5074147;28;20225;-43
2021/12/19 01:21:06;;;;;;;11.40;6.17;;;7.50;99.90;;;;;;5084103;28;20577;-42
2021/12/19 01:23:33;;;;;;;14.53;6.20;;;7.50;99.90;;;;;;5058388;28;20259;-42
2021/12/19 01:26:00;;;;;;;13.40;5.57;;;7.50;99.90;;;;;;5081591;28;20658;-42
2021/12/19 01:28:28;;;;;;;8.90;5.67;;;7.50;99.90;;;;;;5079308;28;20227;-41
2021/12/19 01:30:54;;;;;;;15.00;7.03;;;7.50;99.90;;;;;;5070705;28;20497;-41
2021/12/19 01:33:21;;;;;;;13.27;5.27;;;7.50;99.90;;;;;;5078306;28;20198;-42
2021/12/19 01:35:48;;;;;;;8.13;5.07;;;7.50;99.90;;;;;;5077999;28;20186;-42
2021/12/19 01:38:14;;;;;;;14.23;6.13;;;7.50;99.90;;;;;;5085468;28;20202;-42
2021/12/19 01:40:41;;;;;;;13.63;4.23;;;7.50;99.90;;;;;;5069078;28;21111;-43
2021/12/19 01:43:08;;;;;;;12.53;4.67;;;7.50;99.90;;;;;;5081999;28;20233;-42
2021/12/19 01:45:38;;;;;;;12.63;4.50;;;7.50;99.90;;;;;;5072155;28;20208;-42
2021/12/19 01:48:08;;;;;;;11.90;4.67;;;7.50;99.90;;;;;;5073974;28;20666;-43
2021/12/19 01:50:35;;;;;;;16.27;5.67;;;7.50;99.90;;;;;;5079563;28;20218;-44
2021/12/19 01:53:04;;;;;;;14.60;5.30;;;7.50;99.90;;;;;;5078261;28;20204;-41
2021/12/19 01:55:32;;;;;;;14.10;4.93;;;7.50;99.90;;;;;;5065779;28;20202;-46
2021/12/19 01:57:59;;;;;;;17.27;4.87;;;7.50;99.90;;;;;;5082714;28;20566;-42
2021/12/19 02:00:28;;;;;;;10.57;4.40;;;7.50;99.90;;;;;;5075359;28;20225;-41
2021/12/19 02:02:57;;;;;;;20.90;4.70;;;7.50;99.90;;;;;;5072942;28;20257;-43
2021/12/19 02:05:25;;;;;;;9.70;4.00;;;7.50;99.90;;;;;;5082906;28;20198;-42
2021/12/19 02:07:54;;;;;;;13.10;4.57;;;7.50;99.90;;;;;;5080786;28;20268;-42
2021/12/19 02:10:21;;;;;;;14.43;5.23;;;7.50;99.90;;;;;;5061937;28;20225;-45
2021/12/19 02:12:49;;;;;;;12.57;3.77;;;7.50;99.90;;;;;;5080832;28;20190;-43
2021/12/19 02:15:19;;;;;;;13.77;3.87;;;7.50;99.90;;;;;;5082694;28;20206;-43
2021/12/19 02:17:46;;;;;;;15.60;4.40;;;7.50;99.90;;;;;;5075545;28;20216;-44
2021/12/19 02:20:15;;;;;;;11.33;4.07;;;7.50;99.90;;;;;;5076607;28;20713;-40
2021/12/19 02:22:42;;;;;;;12.20;4.20;;;7.50;99.90;;;;;;5068220;28;20214;-41
2021/12/19 02:25:10;;;;;;;13.60;4.87;;;7.50;99.90;;;;;;5065902;28;20214;-42
2021/12/19 02:27:37;;;;;;;16.80;4.40;;;7.50;99.90;;;;;;5082020;28;20202;-41
2021/12/19 02:30:05;;;;;;;11.00;4.30;;;7.50;99.90;;;;;;5073400;28;20900;-41
2021/12/19 02:32:33;;;;;;;15.33;4.93;;;7.50;99.90;;;;;;5076687;28;20186;-44
2021/12/19 02:35:04;;;;;;;12.83;4.00;;;7.40;99.90;;;;;;5070182;28;20278;-40
2021/12/19 02:37:57;;;;;;;10.40;3.80;;;7.40;99.90;;;;;;5078344;28;20191;-40
2021/12/19 02:40:38;;;;;;;13.33;3.90;;;7.40;99.90;;;;;;5066152;28;20632;-41
2021/12/19 02:48:34;;;;;;;11.27;4.17;;;7.40;99.90;;;;;;5078326;28;20246;-41
2021/12/19 02:51:02;;;;;;;7.60;3.50;;;7.40;99.90;;;;;;5070333;28;20222;-42
2021/12/19 02:53:32;;;;;;;15.93;5.17;;;7.40;99.90;;;;;;5082236;28;20194;-41
2021/12/19 02:55:59;;;;;;;13.83;4.50;;;7.40;99.90;;;;;;5060601;28;20286;-42
2021/12/19 02:58:26;;;;;;;9.57;4.60;;;7.40;99.90;;;;;;5077062;28;20204;-39
2021/12/19 03:00:53;;;;;;;12.50;4.00;;;7.40;99.90;;;;;;5081295;28;20225;-43
2021/12/19 03:03:20;;;;;;;10.73;4.90;;;7.40;99.90;;;;;;5084917;28;20237;-42
2021/12/19 03:05:47;;;;;;;10.77;4.20;;;7.40;99.90;;;;;;5073315;28;20666;-41
2021/12/19 03:08:13;;;;;;;13.03;5.03;;;7.50;99.90;;;;;;5075256;28;20475;-44
2021/12/19 03:17:55;;;;;;;14.50;4.33;;;7.50;99.90;;;;;;5043074;28;20213;-41
2021/12/19 03:19:04;;;;;;;9.03;5.00;;;7.40;99.90;;;;;;5041126;28;20197;-43
2021/12/19 03:21:31;;;;;;;16.00;5.17;;;7.40;99.90;;;;;;5076608;28;20214;-43
2021/12/19 03:23:57;;;;;;;6.40;3.57;;;7.40;99.90;;;;;;5080807;28;20863;-40
2021/12/19 03:26:25;;;;;;;12.07;4.70;;;7.40;99.90;;;;;;5069030;28;20202;-41
2021/12/19 03:28:52;;;;;;;13.43;4.50;;;7.30;99.90;;;;;;5079335;28;20230;-41
2021/12/19 03:31:18;;;;;;;5.97;4.23;;;7.30;99.90;;;;;;5084186;28;20721;-41
2021/12/19 03:33:45;;;;;;;13.97;4.90;;;7.30;99.90;;;;;;5082502;28;20201;-42
2021/12/19 03:36:12;;;;;;;4.23;2.87;;;7.40;99.90;;;;;;5070211;28;20332;-43
2021/12/19 03:38:39;;;;;;;8.10;2.50;;;7.40;99.90;;;;;;5080582;28;20600;-41
2021/12/19 03:41:14;;;;;;;6.43;2.37;;;7.30;99.90;;;;;;5065902;28;20228;-40
2021/12/19 03:43:42;;;;;;;4.00;2.27;;;7.30;99.90;;;;;;5085066;28;20217;-40
2021/12/19 03:46:09;;;;;;;3.83;1.80;;;7.30;99.90;;;;;;5083084;28;20190;-42
2021/12/19 03:48:36;;;;;;;5.07;1.70;;;7.30;99.90;;;;;;5078111;28;20194;-41
2021/12/19 03:51:03;;;;;;;5.80;1.73;;;7.30;99.90;;;;;;5076833;28;20202;-43
2021/12/19 03:53:29;;;;;;;3.87;1.97;;;7.30;99.90;;;;;;5073335;28;20194;-44
2021/12/19 03:55:56;;;;;;;6.70;2.73;;;7.30;99.90;;;;;;5064797;28;20206;-39
2021/12/19 03:58:23;;;;;;;3.13;1.50;;;7.20;99.90;;;;;;5083294;28;20205;-44
2021/12/19 04:00:53;;;;;;;3.07;1.67;;;7.20;99.90;;;;;;5083216;28;20218;-43
2021/12/19 04:03:20;;;;;;;3.20;1.70;;;7.20;99.90;;;;;;5083897;28;20300;-41
2021/12/19 04:05:48;;;;;;;4.63;1.20;;;7.20;99.90;;;;;;5083399;28;20714;-41
2021/12/19 04:08:15;;;;;;;6.77;2.23;;;7.20;99.90;;;;;;5069900;28;20865;-44
2021/12/19 04:10:43;;;;;;;2.80;1.20;;;7.20;99.90;;;;;;5073598;28;20221;-41
2021/12/19 04:13:09;;;;;;;3.87;1.27;;;7.20;99.90;;;;;;5067196;28;20190;-41
2021/12/19 04:15:36;;;;;;;2.27;1.40;;;7.20;99.90;;;;;;5081545;28;20198;-41
2021/12/19 04:18:04;;;;;;;2.73;1.37;;;7.20;99.90;;;;;;5077057;28;20194;-42
2021/12/19 04:20:31;;;;;;;3.53;1.20;;;7.20;99.90;;;;;;5082855;28;20220;-40
2021/12/19 04:22:58;;;;;;;4.93;1.63;;;7.20;99.90;;;;;;5073274;28;20222;-40
2021/12/19 04:25:25;;;;;;;5.73;1.77;;;7.10;99.90;;;;;;5081712;28;20194;-39
2021/12/19 04:27:52;;;;;;;4.80;1.57;;;7.20;99.90;;;;;;5067262;28;20217;-39
2021/12/19 04:30:21;;;;;;;3.23;1.63;;;7.20;99.90;;;;;;5076168;28;20285;-42
2021/12/19 04:32:57;;;;;;;4.07;1.50;;;7.20;99.90;;;;;;5078596;28;20231;-40
2021/12/19 04:35:28;;;;;;;1.63;1.00;;;7.20;99.90;;;;;;5082797;28;20201;-39
2021/12/19 04:38:27;;;;;;;2.60;0.87;;;7.20;99.90;;;;;;5081036;28;20209;-41
2021/12/19 04:41:05;;;;;;;2.73;1.07;;;7.20;99.90;;;;;;5068263;28;20350;-41
2021/12/19 04:54:46;;;;;;;3.43;1.27;;;7.30;99.90;;;;;;5068680;28;20209;-41
2021/12/19 04:57:27;;;;;;;6.30;2.10;;;7.30;99.90;;;;;;5070284;28;20202;-43
2021/12/19 04:59:57;;;;;;;4.63;1.50;;;7.30;99.90;;;;;;5062696;28;20213;-48
2021/12/19 05:02:44;;;;;;;3.57;1.73;;;7.30;99.90;;;;;;5078109;28;20260;-45
2021/12/19 05:16:08;;;;;;;8.13;1.70;;;7.30;99.90;;;;;;5063049;28;20197;-44
2021/12/19 05:18:38;;;;;;;6.00;1.40;;;7.30;99.90;;;;;;5082345;28;20214;-44
2021/12/19 05:21:09;;;;;;;8.60;1.80;;;7.30;99.90;;;;;;5077728;28;20220;-44
2021/12/19 05:23:51;;;;;;;5.13;1.43;;;7.40;99.90;;;;;;5080555;28;20222;-43
2021/12/19 05:26:18;;;;;;;3.10;1.60;;;7.30;99.90;;;;;;5072393;28;20206;-44
2021/12/19 05:28:48;;;;;;;6.13;1.60;;;7.40;99.90;;;;;;5078845;28;20195;-46
2021/12/19 05:31:14;;;;;;;3.27;1.50;;;7.40;99.90;;;;;;5058095;28;20947;-43
2021/12/19 05:33:41;;;;;;;5.63;1.70;;;7.40;99.90;;;;;;5075489;28;20197;-45
2021/12/19 05:44:09;;;;;;;4.70;1.80;;;7.40;99.90;;;;;;5079895;28;20201;-42
2021/12/19 05:47:13;;;;;;;5.20;1.60;;;7.50;99.90;;;;;;5075296;28;20182;-43
2021/12/19 05:49:39;;;;;;;8.77;2.13;;;7.50;99.90;;;;;;5082742;28;20206;-44
2021/12/19 05:52:06;;;;;;;4.90;1.67;;;7.50;99.90;;;;;;5074253;28;20829;-45
2021/12/19 05:54:34;;;;;;;6.00;1.60;;;7.50;99.90;;;;;;5083495;28;20210;-44
2021/12/19 05:57:01;;;;;;;9.47;1.73;;;7.50;99.90;;;;;;5078984;28;20212;-44
2021/12/19 05:59:27;;;;;;;5.87;1.60;;;7.50;99.90;;;;;;5077565;28;20233;-44
2021/12/19 06:01:54;;;;;;;7.33;2.03;;;7.50;99.90;;;;;;5066390;28;20221;-47
2021/12/19 06:04:21;;;;;;;8.27;2.10;;;7.50;99.90;;;;;;5075897;28;20222;-46
2021/12/19 06:06:47;;;;;;;6.63;1.60;;;7.50;99.90;;;;;;5076129;28;20213;-45
2021/12/19 06:09:14;;;;;;;7.80;1.80;;;7.60;99.90;;;;;;5075544;28;20193;-44
2021/12/19 06:11:42;;;;;;;7.57;1.63;;;7.60;99.90;;;;;;5076337;28;20222;-46
2021/12/19 06:14:09;;;;;;;7.47;1.40;;;7.60;99.90;;;;;;5073141;28;20197;-44
2021/12/19 06:16:35;;;;;;;10.13;2.20;;;7.60;99.90;;;;;;5078390;28;20658;-46
2021/12/19 06:19:02;;;;;;;7.97;1.47;;;7.60;99.90;;;;;;5057885;28;20202;-46
2021/12/19 06:21:28;;;;;;;4.07;1.30;;;7.60;99.90;;;;;;5082573;28;20210;-46
2021/12/19 06:23:56;;;;;;;8.40;1.37;;;7.70;99.90;;;;;;5065304;28;20214;-46
2021/12/19 06:26:22;;;;;;;4.60;1.33;;;7.70;99.90;;;;;;5067273;28;20280;-47
2021/12/19 06:28:50;;;;;;;5.97;1.77;;;7.70;99.90;;;;;;5075380;28;20217;-46
2021/12/19 06:31:18;;;;;;;7.20;1.80;;;7.70;99.90;;;;;;5070739;28;20225;-46
2021/12/19 06:33:44;;;;;;;3.17;0.90;;;7.70;99.90;;;;;;5055774;28;21222;-46
2021/12/19 06:36:11;;;;;;;9.27;1.77;;;7.70;99.90;;;;;;5080370;28;20186;-47
2021/12/19 06:38:38;;;;;;;8.93;1.43;;;7.70;99.90;;;;;;5076235;28;20204;-48
2021/12/19 06:41:04;;;;;;;9.63;1.50;;;7.70;99.90;;;;;;5074160;28;20741;-48
2021/12/19 06:43:33;;;;;;;5.13;1.23;;;7.70;99.90;;;;;;5072215;28;20218;-48
2021/12/19 06:46:01;;;;;;;3.40;1.00;;;7.70;99.90;;;;;;5068182;28;20289;-48
2021/12/19 06:48:28;;;;;;;9.60;1.40;;;7.70;99.90;;;;;;5066264;28;20190;-46
2021/12/19 06:50:55;;;;;;;5.20;1.80;;;7.70;99.90;;;;;;5071034;28;20245;-48
2021/12/19 06:53:22;;;;;;;6.93;1.43;;;7.70;99.90;;;;;;5079703;28;20186;-49
2021/12/19 06:55:49;;;;;;;11.47;1.47;;;7.70;99.90;;;;;;5077932;28;20194;-46
2021/12/19 06:58:16;;;;;;;4.73;1.10;;;7.70;99.90;;;;;;5084357;28;20206;-46
2021/12/19 07:00:43;;;;;;;7.87;1.40;;;7.70;99.90;;;;;;5074916;28;20232;-46
2021/12/19 07:03:13;;;;;;;8.40;1.20;;;7.70;99.90;;;;;;5074674;28;20215;-47
2021/12/19 07:05:40;;;;;;;5.90;1.13;;;7.70;99.90;;;;;;5058808;28;20217;-45
2021/12/19 07:08:07;;;;;;;8.43;1.90;;;7.70;99.90;;;;;;5080103;28;20201;-46
2021/12/19 07:10:34;;;;;;;5.33;1.37;;;7.70;99.90;;;;;;5074146;28;20600;-50
2021/12/19 07:13:01;;;;;;;4.60;1.23;;;7.70;99.90;;;;;;5078807;28;20202;-49
2021/12/19 07:15:28;;;;;;;7.03;1.77;;;7.70;99.90;;;;;;5080345;28;20649;-52
2021/12/19 07:17:55;;;;;;;6.80;1.40;;;7.70;99.90;;;;;;5061836;28;20681;-52
2021/12/19 07:20:23;;;;;;;10.60;1.30;;;7.70;99.90;;;;;;5066211;28;20213;-48
2021/12/19 07:22:50;;;;;;;3.20;0.83;;;7.70;99.90;;;;;;5073582;28;20205;-46
2021/12/19 07:25:16;;;;;;;9.23;1.23;;;7.70;99.90;;;;;;5082672;28;20906;-45
2021/12/19 07:27:43;;;;;;;8.33;1.30;;;7.70;99.90;;;;;;5085124;28;20198;-47
2021/12/19 07:30:11;;;;;;;6.70;1.30;;;7.70;99.90;;;;;;5079812;28;20344;-47
2021/12/19 07:32:39;;;;;;;6.33;1.40;;;7.70;99.90;;;;;;5065996;28;20203;-46
2021/12/19 07:35:08;;;;;;;5.67;1.17;;;7.80;99.90;;;;;;5065344;28;20194;-46
2021/12/19 07:37:37;;;;;;;7.60;1.77;;;7.80;99.90;;;;;;5071622;28;20221;-47
2021/12/19 07:40:13;;;;;;;7.17;2.20;;;7.80;99.90;;;;;;5075120;28;20243;-48
2021/12/19 07:42:39;;;;;;;9.27;1.40;;;7.80;99.90;;;;;;5076993;28;20260;-46
2021/12/19 07:45:07;;;;;;;6.07;1.47;;;7.90;99.90;;;;;;5082332;28;20218;-45
2021/12/19 07:47:34;;;;;;;5.10;1.67;;;7.90;99.90;;;;;;5078958;28;20206;-44
2021/12/19 07:50:00;;;;;;;7.17;1.17;;;7.90;99.90;;;;;;5073830;28;20217;-44
2021/12/19 07:52:27;;;;;;;7.43;1.43;;;7.90;99.90;;;;;;5061990;28;20733;-46
2021/12/19 07:54:55;;;;;;;9.80;1.63;;;7.90;99.90;;;;;;5069820;28;20190;-46
2021/12/19 07:57:21;;;;;;;9.30;1.20;;;7.90;99.90;;;;;;5081149;28;20195;-46
2021/12/19 07:59:48;;;;;;;8.20;1.93;;;7.90;99.90;;;;;;5076739;28;20194;-47
2021/12/19 08:02:14;;;;;;;5.73;1.30;;;7.90;99.90;;;;;;5076563;28;20258;-49
2021/12/19 08:04:41;;;;;;;7.57;1.90;;;7.90;99.90;;;;;;5064244;28;20894;-46
2021/12/19 08:07:11;;;;;;;3.93;1.13;;;7.90;99.90;;;;;;5071433;28;20213;-44
2021/12/19 08:09:41;;;;;;;5.70;1.60;;;7.90;99.90;;;;;;5068284;28;20202;-46
2021/12/19 08:12:08;;;;;;;8.90;1.70;;;7.90;99.90;;;;;;5084658;28;20289;-44
2021/12/19 08:14:35;;;;;;;10.40;1.60;;;7.90;99.90;;;;;;5080960;28;20655;-47
2021/12/19 08:17:02;;;;;;;8.60;2.07;;;7.90;99.90;;;;;;5080576;28;20290;-42
2021/12/19 08:19:29;;;;;;;7.57;1.77;;;7.90;99.90;;;;;;5080054;28;20213;-44
2021/12/19 08:21:56;;;;;;;7.77;1.27;;;7.90;99.90;;;;;;5071126;28;20215;-44
2021/12/19 08:24:23;;;;;;;7.33;1.53;;;7.90;99.90;;;;;;5060857;28;20228;-44
2021/12/19 08:26:50;;;;;;;7.07;1.33;;;8.00;99.90;;;;;;5075972;28;20236;-45
2021/12/19 08:29:18;;;;;;;9.73;1.67;;;7.90;99.90;;;;;;5078381;28;20580;-43
2021/12/19 08:31:45;;;;;;;7.40;1.87;;;8.00;99.90;;;;;;5064572;28;20218;-43
2021/12/19 08:34:11;;;;;;;3.57;1.33;;;8.00;99.90;;;;;;5077357;28;20190;-46
2021/12/19 08:36:38;;;;;;;5.00;1.53;;;7.90;99.90;;;;;;5064241;28;20209;-44
2021/12/19 08:39:05;;;;;;;8.63;1.47;;;7.90;99.90;;;;;;5066207;28;20697;-42
2021/12/19 08:41:32;;;;;;;6.53;1.63;;;7.90;99.90;;;;;;5071403;28;20218;-42
2021/12/19 08:43:59;;;;;;;6.07;1.50;;;8.00;99.90;;;;;;5078086;28;20405;-41
2021/12/19 08:46:28;;;;;;;5.03;1.23;;;7.90;99.90;;;;;;5075114;28;20273;-43
2021/12/19 08:48:55;;;;;;;6.73;1.47;;;8.00;99.90;;;;;;5077675;28;20279;-47
2021/12/19 08:51:21;;;;;;;5.10;1.00;;;8.00;99.90;;;;;;5074023;28;20219;-45
2021/12/19 08:53:48;;;;;;;3.73;1.43;;;8.00;99.90;;;;;;5073137;28;20198;-47
2021/12/19 08:56:15;;;;;;;4.70;1.20;;;8.00;99.90;;;;;;5059327;28;20198;-45
2021/12/19 08:58:41;;;;;;;9.90;2.00;;;8.00;99.90;;;;;;5074076;28;20195;-45
2021/12/19 09:01:08;;;;;;;4.30;1.57;;;8.00;99.90;;;;;;5071568;28;20215;-49
2021/12/19 09:03:36;;;;;;;5.70;1.30;;;8.00;99.90;;;;;;5081656;28;20221;-47
2021/12/19 09:06:03;;;;;;;6.23;1.60;;;8.10;99.90;;;;;;5075152;28;20369;-45
2021/12/19 09:08:30;;;;;;;5.73;1.40;;;8.10;99.90;;;;;;5073075;28;20286;-43
2021/12/19 09:10:58;;;;;;;5.13;1.40;;;8.10;99.90;;;;;;5059707;28;21985;-44
2021/12/19 09:13:25;;;;;;;7.20;1.60;;;8.10;99.90;;;;;;5074253;28;20194;-43
2021/12/19 09:15:52;;;;;;;5.00;1.50;;;8.10;99.90;;;;;;5071692;28;20217;-43
2021/12/19 09:18:20;;;;;;;10.37;1.87;;;8.10;99.90;;;;;;5074668;28;20220;-48
2021/12/19 09:20:48;;;;;;;5.23;1.47;;;8.10;99.90;;;;;;5074735;28;20210;-44
2021/12/19 09:23:17;;;;;;;9.53;1.87;;;8.10;99.90;;;;;;5069396;28;20619;-45
2021/12/19 09:25:45;;;;;;;9.50;2.43;;;8.20;99.90;;;;;;5061941;28;20464;-44
2021/12/19 09:28:11;;;;;;;7.67;1.73;;;8.20;99.90;;;;;;5077009;28;20225;-45
2021/12/19 09:30:38;;;;;;;9.07;1.53;;;8.20;99.90;;;;;;5077220;28;20275;-44
2021/12/19 09:33:05;;;;;;;11.27;1.87;;;8.20;99.90;;;;;;5075647;28;20205;-50
2021/12/19 09:35:32;;;;;;;14.50;2.83;;;8.20;99.90;;;;;;5067351;28;20192;-44
2021/12/19 09:38:00;;;;;;;10.67;1.40;;;8.20;99.90;;;;;;5070764;28;20226;-44
2021/12/19 09:40:33;;;;;;;5.50;1.97;;;8.30;99.90;;;;;;5062401;28;20701;-44
2021/12/19 09:43:03;;;;;;;7.30;1.93;;;8.20;99.90;;;;;;5075896;28;20210;-46
2021/12/19 09:45:31;;;;;;;8.47;1.50;;;8.30;99.90;;;;;;5075164;28;20270;-46
2021/12/19 09:47:58;;;;;;;7.40;1.50;;;8.30;99.90;;;;;;5082323;28;20666;-43
2021/12/19 09:50:25;;;;;;;7.63;1.57;;;8.30;99.90;;;;;;5068215;28;20222;-45
2021/12/19 09:52:52;;;;;;;6.47;1.60;;;8.30;99.90;;;;;;5077245;28;20213;-45
2021/12/19 09:55:21;;;;;;;5.77;1.40;;;8.40;99.90;;;;;;5068509;28;20194;-45
2021/12/19 09:57:49;;;;;;;10.47;1.80;;;8.40;99.90;;;;;;5058428;28;21177;-45
2021/12/19 10:00:16;;;;;;;6.77;1.23;;;8.40;99.90;;;;;;5068121;28;20717;-44
2021/12/19 10:02:44;;;;;;;8.80;1.73;;;8.40;99.90;;;;;;5075841;28;20222;-44
2021/12/19 10:05:19;;;;;;;6.87;1.60;;;8.40;99.90;;;;;;5070561;28;20229;-45
2021/12/19 10:07:49;;;;;;;7.60;1.47;;;8.40;99.90;;;;;;5077784;28;20201;-45
2021/12/19 10:10:24;;;;;;;6.13;2.07;;;8.40;99.90;;;;;;5057145;28;20804;-44
2021/12/19 10:12:57;;;;;;;10.23;2.43;;;8.50;99.90;;;;;;5065268;28;20366;-46
2021/12/19 10:15:29;;;;;;;8.67;1.60;;;8.40;99.90;;;;;;5066858;28;20190;-46
2021/12/19 10:18:07;;;;;;;5.83;1.40;;;8.50;99.90;;;;;;5073857;28;20214;-44
2021/12/19 10:20:57;;;;;;;7.77;1.57;;;8.50;99.90;;;;;;5065660;28;21011;-43
2021/12/19 10:23:26;;;;;;;7.00;1.27;;;8.40;99.90;;;;;;5068608;28;20318;-45
2021/12/19 10:26:01;;;;;;;8.33;1.80;;;8.40;99.90;;;;;;5071754;28;20312;-44
2021/12/19 10:28:31;;;;;;;12.30;1.80;;;8.50;99.90;;;;;;5064749;28;20201;-46
2021/12/19 10:31:00;;;;;;;8.73;1.80;;;8.50;99.90;;;;;;5068371;28;20585;-45
2021/12/19 10:33:28;;;;;;;8.47;1.63;;;8.40;99.90;;;;;;5067212;28;20986;-45
2021/12/19 10:35:57;;;;;;;4.27;1.43;;;8.50;99.90;;;;;;5075493;28;20198;-49
2021/12/19 10:38:25;;;;;;;9.83;2.03;;;8.40;99.90;;;;;;5077424;28;20194;-45
2021/12/19 10:40:55;;;;;;;7.30;2.07;;;8.50;99.90;;;;;;5069367;28;20293;-47
2021/12/19 10:43:26;;;;;;;9.77;1.57;;;8.50;99.90;;;;;;5076429;28;20216;-44
2021/12/19 10:45:58;;;;;;;5.30;1.50;;;8.50;99.90;;;;;;5058533;28;20219;-45
2021/12/19 10:48:29;;;;;;;9.77;1.77;;;8.50;99.90;;;;;;5063651;28;20924;-46
2021/12/19 10:51:02;;;;;;;7.00;1.50;;;8.50;99.90;;;;;;5079328;28;20243;-46
2021/12/19 10:53:33;;;;;;;4.97;1.57;;;8.50;99.90;;;;;;5066931;28;20201;-44
2021/12/19 10:56:01;;;;;;;4.20;1.67;;;8.50;99.90;;;;;;5066768;28;20205;-49
2021/12/19 10:58:36;;;;;;;8.87;1.50;;;8.50;99.90;;;;;;5064304;28;20210;-46
2021/12/19 11:01:17;;;;;;;7.47;1.97;;;8.50;99.90;;;;;;5055532;28;20228;-49
2021/12/19 11:03:56;;;;;;;8.87;2.37;;;8.50;99.90;;;;;;5061116;28;20214;-46
2021/12/19 11:06:29;;;;;;;13.27;2.53;;;8.50;99.90;;;;;;5072484;28;20194;-44
2021/12/19 11:08:59;;;;;;;8.40;1.30;;;8.50;99.90;;;;;;5075010;28;20206;-46
2021/12/19 11:11:41;;;;;;;7.27;1.80;;;8.50;99.90;;;;;;5073875;28;20222;-46
2021/12/19 11:14:10;;;;;;;6.53;1.40;;;8.50;99.90;;;;;;5073604;28;21057;-45
2021/12/19 11:16:38;;;;;;;9.87;2.13;;;8.50;99.90;;;;;;5051781;28;20318;-49
2021/12/19 11:19:05;;;;;;;4.90;1.33;;;8.60;99.90;;;;;;5060267;28;20201;-45
2021/12/19 11:21:35;;;;;;;5.87;2.17;;;8.60;99.90;;;;;;5079510;28;20226;-45
2021/12/19 11:24:03;;;;;;;7.00;2.03;;;8.60;99.90;;;;;;5073684;28;20678;-46
2021/12/19 11:26:30;;;;;;;8.80;2.20;;;8.60;99.90;;;;;;5066010;28;20225;-44
2021/12/19 11:28:57;;;;;;;6.57;1.50;;;8.60;99.90;;;;;;5059533;28;20209;-44
2021/12/19 11:31:28;;;;;;;9.43;1.63;;;8.70;99.90;;;;;;5065154;28;20236;-44
2021/12/19 11:34:23;;;;;;;8.63;1.97;;;8.70;99.90;;;;;;5060649;28;20259;-45
2021/12/19 11:36:57;;;;;;;9.87;2.10;;;8.70;99.90;;;;;;5072561;28;20558;-47
2021/12/19 11:39:31;;;;;;;12.53;2.13;;;8.70;99.90;;;;;;5069419;28;20221;-44
2021/12/19 11:42:07;;;;;;;6.23;2.20;;;8.70;99.90;;;;;;5066920;28;20222;-49
2021/12/19 11:44:39;;;;;;;12.50;1.67;;;8.70;99.90;;;;;;5075305;28;20225;-45
2021/12/19 11:47:11;;;;;;;8.30;1.60;;;8.70;99.90;;;;;;5061222;28;20210;-44
2021/12/19 11:49:39;;;;;;;7.23;1.43;;;8.70;99.90;;;;;;5068316;28;20198;-44
2021/12/19 11:52:27;;;;;;;6.60;1.50;;;8.80;99.90;;;;;;5080237;28;20279;-44
2021/12/19 11:55:19;;;;;;;7.37;1.70;;;8.80;99.90;;;;;;5067877;28;20199;-48
2021/12/19 11:58:18;;;;;;;5.23;1.20;;;8.80;99.90;;;;;;5079222;28;20689;-48
2021/12/19 12:00:50;;;;;;;9.43;1.57;;;8.80;99.90;;;;;;5075374;28;20297;-44
2021/12/19 12:03:51;;;;;;;7.43;2.23;;;8.80;99.90;;;;;;5074497;28;20297;-45
2021/12/19 12:06:39;;;;;;;6.50;1.23;;;8.80;99.90;;;;;;5053906;28;20313;-44
2021/12/19 12:09:23;;;;;;;11.10;2.37;;;8.80;99.90;;;;;;5076988;28;20190;-46
2021/12/19 12:12:13;;;;;;;11.00;1.57;;;8.80;99.90;;;;;;5081827;28;20242;-46
2021/12/19 12:14:43;;;;;;;4.90;1.33;;;8.80;99.90;;;;;;5075752;28;20194;-46
2021/12/19 12:17:17;;;;;;;10.33;1.97;;;8.80;99.90;;;;;;5070772;28;20206;-44
2021/12/19 12:19:47;;;;;;;6.60;1.53;;;8.80;99.90;;;;;;5071441;28;20227;-48
2021/12/19 12:22:45;;;;;;;10.43;1.43;;;8.80;99.90;;;;;;5074859;28;20573;-46
2021/12/19 12:25:16;;;;;;;6.63;1.60;;;8.80;99.90;;;;;;5074678;28;20213;-44
2021/12/19 12:27:46;;;;;;;7.50;1.77;;;8.80;99.90;;;;;;5075940;28;20198;-47
2021/12/19 12:30:15;;;;;;;9.87;2.07;;;8.80;99.90;;;;;;5083738;28;20214;-44
2021/12/19 12:32:42;;;;;;;6.80;1.63;;;8.80;99.90;;;;;;5062461;28;20300;-46
2021/12/19 12:35:11;;;;;;;9.53;2.60;;;8.80;99.90;;;;;;5075625;28;20662;-45
2021/12/19 12:37:40;;;;;;;9.07;2.13;;;8.80;99.90;;;;;;5071511;28;20198;-46
2021/12/19 12:40:18;;;;;;;8.67;2.13;;;8.80;99.90;;;;;;5079920;28;20252;-44
2021/12/19 12:43:05;;;;;;;11.03;1.90;;;8.80;99.90;;;;;;5080236;28;20298;-44
2021/12/19 12:45:52;;;;;;;6.67;1.30;;;8.80;99.90;;;;;;5080649;28;20571;-45
2021/12/19 12:48:31;;;;;;;8.63;2.37;;;8.90;99.90;;;;;;5069175;28;20202;-49
2021/12/19 12:50:58;;;;;;;6.57;1.77;;;8.80;99.90;;;;;;5069678;28;20248;-45
2021/12/19 12:53:32;;;;;;;12.03;1.97;;;8.90;99.90;;;;;;5073154;28;20202;-46
2021/12/19 12:56:05;;;;;;;7.60;1.53;;;8.90;99.90;;;;;;5082100;28;20195;-46
2021/12/19 12:58:36;;;;;;;8.50;2.40;;;8.80;99.90;;;;;;5073725;28;20281;-46
2021/12/19 13:01:24;;;;;;;8.83;1.90;;;8.80;99.90;;;;;;5081866;28;20226;-62
2021/12/19 13:04:16;;;;;;;9.77;2.40;;;8.80;99.90;;;;;;5054219;28;20216;-52
2021/12/19 13:06:58;;;;;;;8.13;2.20;;;8.80;99.90;;;;;;5066520;28;20210;-46
2021/12/19 13:09:32;;;;;;;10.03;2.53;;;8.80;99.90;;;;;;5062474;28;20194;-47
2021/12/19 13:12:10;;;;;;;10.50;1.53;;;8.70;99.90;;;;;;5078515;28;20218;-46
2021/12/19 13:14:38;;;;;;;5.80;1.23;;;8.80;99.90;;;;;;5078298;28;20201;-44
2021/12/19 13:17:07;;;;;;;9.70;2.07;;;8.80;99.90;;;;;;5080944;28;20285;-44
2021/12/19 13:19:58;;;;;;;7.87;2.10;;;8.70;99.90;;;;;;5070087;28;20393;-48
2021/12/19 13:22:32;;;;;;;5.37;1.30;;;8.80;99.90;;;;;;5063067;28;20344;-44
2021/12/19 13:25:05;;;;;;;3.73;1.00;;;8.80;99.90;;;;;;5069049;28;20218;-48
2021/12/19 13:27:35;;;;;;;7.50;2.03;;;8.70;99.90;;;;;;5075764;28;20258;-45
2021/12/19 13:30:07;;;;;;;8.33;1.93;;;8.80;99.90;;;;;;5075567;28;20586;-52
2021/12/19 13:32:36;;;;;;;11.07;3.37;;;8.70;99.90;;;;;;5070665;28;20285;-45
2021/12/19 13:35:05;;;;;;;7.87;1.67;;;8.70;99.90;;;;;;5072590;28;20201;-45
2021/12/19 13:37:33;;;;;;;6.20;1.40;;;8.70;99.90;;;;;;5072436;28;22611;-51
2021/12/19 13:40:14;;;;;;;7.83;1.70;;;8.60;99.90;;;;;;5060780;28;20205;-46
2021/12/19 13:42:44;;;;;;;11.57;2.30;;;8.50;99.90;;;;;;5071027;28;20202;-50
2021/12/19 13:45:36;;;;;;;12.13;2.10;;;8.50;99.90;;;;;;5076307;28;20216;-53
2021/12/19 13:48:08;;;;;;;8.80;1.97;;;8.40;99.90;;;;;;5068025;28;20200;-54
2021/12/19 13:50:40;;;;;;;12.23;2.00;;;8.40;99.90;;;;;;5068329;28;20225;-50
2021/12/19 13:53:08;;;;;;;11.10;2.30;;;8.40;99.90;;;;;;5072338;28;20192;-49